Time;durP1;ratioP1;P1;durP2;ratioP2;P2;SDS_P1;SDS_P2;PMS_P1;PMS_P2;Temp;Humidity;BMP_temperature;BMP_pressure;BME280_temperature;BME280_humidity;BME280_pressure;Samples;Min_cycle;Max_cycle;Signal;HPM_P1;HPM_P2
2024/04/07 00:01:04;;;;;;;18.67;3.47;;;11.90;99.90;;;11.32;100.00;100752.09;4152580;28;20038;-54
2024/04/07 00:03:05;;;;;;;22.83;3.40;;;11.90;99.90;;;11.24;100.00;100750.22;4152383;28;20025;-54
2024/04/07 00:05:06;;;;;;;15.85;3.47;;;11.80;99.90;;;11.22;100.00;100751.38;4152273;28;20057;-53
2024/04/07 00:07:07;;;;;;;15.48;3.63;;;11.80;99.90;;;11.18;100.00;100750.03;4152409;28;20037;-54
2024/04/07 00:09:08;;;;;;;18.25;3.10;;;11.80;99.90;;;11.13;100.00;100747.06;4151956;28;20026;-56
2024/04/07 00:11:09;;;;;;;10.93;2.17;;;11.70;99.90;;;11.05;100.00;100746.03;4152443;28;20033;-56
2024/04/07 00:13:10;;;;;;;17.83;3.33;;;11.70;99.90;;;11.05;100.00;100761.88;4152270;28;20477;-55
2024/04/07 00:15:11;;;;;;;16.10;3.35;;;11.60;99.90;;;11.06;100.00;100758.25;4152474;28;20036;-54
2024/04/07 00:17:12;;;;;;;16.73;3.45;;;11.60;99.90;;;11.03;100.00;100750.66;4152416;28;20030;-54
2024/04/07 00:19:12;;;;;;;13.50;2.45;;;11.60;99.90;;;10.94;100.00;100748.97;4152350;28;20030;-52
2024/04/07 00:21:13;;;;;;;18.92;3.13;;;11.60;99.90;;;10.98;100.00;100757.41;4152629;28;20481;-56
2024/04/07 00:23:14;;;;;;;21.58;2.72;;;11.50;99.90;;;10.95;100.00;100763.00;4161389;28;20480;-54
2024/04/07 00:25:16;;;;;;;24.52;2.95;;;11.50;99.90;;;10.89;100.00;100761.81;4136136;28;20023;-55
2024/04/07 00:27:19;;;;;;;13.35;2.78;;;11.50;99.90;;;10.84;100.00;100764.06;4135770;28;20033;-51
2024/04/07 00:29:20;;;;;;;20.65;3.88;;;11.50;99.90;;;10.82;100.00;100760.78;4136085;28;20026;-56
2024/04/07 00:31:20;;;;;;;18.98;3.33;;;11.40;99.90;;;10.85;100.00;100763.09;4136245;28;20033;-55
2024/04/07 00:33:21;;;;;;;24.63;4.57;;;11.40;99.90;;;10.85;100.00;100768.38;4136154;28;20037;-55
2024/04/07 00:35:22;;;;;;;21.85;4.18;;;11.40;99.90;;;10.86;100.00;100766.56;4135962;28;20034;-54
2024/04/07 00:37:26;;;;;;;18.15;3.80;;;11.40;99.90;;;10.80;100.00;100768.03;4135865;28;20038;-54
2024/04/07 00:39:26;;;;;;;19.90;2.72;;;11.40;99.90;;;10.82;100.00;100768.69;4136103;28;20493;-53
2024/04/07 00:41:29;;;;;;;25.90;3.53;;;11.40;99.90;;;10.78;100.00;100756.78;4135784;28;20034;-55
2024/04/07 00:43:30;;;;;;;27.48;5.60;;;11.40;99.90;;;10.75;100.00;100753.66;4136068;28;20465;-53
2024/04/07 00:45:31;;;;;;;26.20;3.63;;;11.40;99.90;;;10.73;100.00;100759.06;4135860;28;20058;-51
2024/04/07 00:47:31;;;;;;;19.48;4.13;;;11.30;99.90;;;10.70;100.00;100751.47;4135779;28;20078;-56
2024/04/07 00:49:34;;;;;;;27.23;4.38;;;11.30;99.90;;;10.73;100.00;100755.59;4135880;28;20042;-54
2024/04/07 00:51:36;;;;;;;21.25;3.65;;;11.30;99.90;;;10.64;100.00;100746.81;4135993;28;20045;-56
2024/04/07 00:53:37;;;;;;;28.38;3.90;;;11.30;99.90;;;10.60;100.00;100753.41;4135743;28;20042;-53
2024/04/07 00:55:39;;;;;;;18.08;3.05;;;11.20;99.90;;;10.54;100.00;100746.13;4149127;28;20515;-53
2024/04/07 00:57:40;;;;;;;20.33;4.07;;;11.20;99.90;;;10.47;100.00;100740.63;4152037;28;20034;-54
2024/04/07 00:59:42;;;;;;;16.25;2.83;;;11.10;99.90;;;10.44;100.00;100745.38;4150642;28;20159;-56
2024/04/07 01:01:43;;;;;;;17.55;3.28;;;11.10;99.90;;;10.42;100.00;100747.38;4152104;28;20030;-52
2024/04/07 01:03:44;;;;;;;24.13;3.42;;;11.00;99.90;;;10.43;100.00;100755.09;4150870;28;20015;-55
2024/04/07 01:05:49;;;;;;;25.45;4.55;;;11.00;99.90;;;10.47;100.00;100758.25;4135728;28;20038;-53
2024/04/07 01:07:50;;;;;;;24.05;4.45;;;11.10;99.90;;;10.46;100.00;100748.69;4136006;28;20477;-52
2024/04/07 01:09:51;;;;;;;23.15;4.00;;;11.10;99.90;;;10.43;100.00;100743.72;4135642;28;20035;-56
2024/04/07 01:11:53;;;;;;;19.20;3.17;;;11.00;99.90;;;10.38;100.00;100752.13;4135811;28;20034;-56
2024/04/07 01:13:54;;;;;;;26.35;4.20;;;11.00;99.90;;;10.36;100.00;100753.25;4135868;28;20058;-55
2024/04/07 01:15:55;;;;;;;19.38;3.90;;;11.00;99.90;;;10.30;100.00;100764.41;4135656;28;20026;-54
2024/04/07 01:17:57;;;;;;;22.45;5.03;;;10.90;99.90;;;10.27;100.00;100762.09;4135520;28;20401;-55
2024/04/07 01:19:59;;;;;;;22.77;4.07;;;10.90;99.90;;;10.22;100.00;100762.53;4141303;28;20393;-54
2024/04/07 01:22:01;;;;;;;20.77;3.38;;;10.80;99.90;;;10.27;100.00;100770.00;4147988;28;20022;-55
2024/04/07 01:24:02;;;;;;;29.52;5.50;;;10.90;99.90;;;10.24;100.00;100767.66;4138582;28;20039;-56
2024/04/07 01:26:03;;;;;;;18.02;3.13;;;10.90;99.90;;;10.19;100.00;100762.00;4138570;28;20073;-52
2024/04/07 01:28:05;;;;;;;20.48;3.35;;;10.80;99.90;;;10.15;100.00;100765.94;4138367;28;20027;-55
2024/04/07 01:30:07;;;;;;;21.83;4.25;;;10.80;99.90;;;10.13;100.00;100773.13;4138475;28;20018;-56
2024/04/07 01:32:09;;;;;;;20.70;4.57;;;10.70;99.90;;;10.08;100.00;100767.47;4138459;28;20027;-55
2024/04/07 01:34:09;;;;;;;23.27;3.42;;;10.70;99.90;;;10.03;100.00;100762.69;4138509;28;20104;-53
2024/04/07 01:36:10;;;;;;;31.23;5.18;;;10.60;99.90;;;10.13;100.00;100770.47;4138482;28;20031;-55
2024/04/07 01:38:11;;;;;;;33.47;3.33;;;10.70;99.90;;;10.11;100.00;100761.91;4138337;28;20026;-55
2024/04/07 01:40:12;;;;;;;21.05;3.50;;;10.70;99.90;;;10.12;100.00;100760.94;4138519;28;20053;-53
2024/04/07 01:42:13;;;;;;;20.02;3.38;;;10.70;99.90;;;10.14;100.00;100759.84;4136862;28;20031;-54
2024/04/07 01:44:14;;;;;;;21.67;2.85;;;10.70;99.90;;;10.17;100.00;100770.06;4148326;28;20482;-56
2024/04/07 01:46:15;;;;;;;28.35;4.75;;;10.80;99.90;;;10.12;100.00;100761.78;4138078;28;20033;-55
2024/04/07 01:48:16;;;;;;;27.15;3.72;;;10.80;99.90;;;10.09;100.00;100755.97;4138371;28;20042;-55
2024/04/07 01:50:17;;;;;;;24.13;3.63;;;10.70;99.90;;;10.08;100.00;100775.38;4138325;28;20033;-50
2024/04/07 01:52:17;;;;;;;25.60;3.95;;;10.70;99.90;;;10.07;100.00;100771.09;4138400;28;20022;-53
2024/04/07 01:54:18;;;;;;;20.15;4.38;;;10.70;99.90;;;10.03;100.00;100771.41;4140723;28;20117;-53
2024/04/07 01:56:19;;;;;;;31.55;4.40;;;10.70;99.90;;;10.02;100.00;100776.81;4157267;28;20064;-56
2024/04/07 01:58:21;;;;;;;26.88;4.15;;;10.70;99.90;;;9.95;100.00;100766.06;4170490;28;20033;-51
2024/04/07 02:00:22;;;;;;;19.90;4.00;;;10.60;99.90;;;9.93;100.00;100773.31;4138638;28;20030;-54
2024/04/07 02:02:23;;;;;;;22.98;3.88;;;10.60;99.90;;;9.92;100.00;100766.38;4138161;28;20058;-57
2024/04/07 02:04:26;;;;;;;15.27;3.42;;;10.50;99.90;;;9.87;100.00;100767.78;4138048;28;20030;-53
2024/04/07 02:06:27;;;;;;;26.33;3.80;;;10.50;99.90;;;9.82;100.00;100776.16;4138028;28;20022;-56
2024/04/07 02:08:28;;;;;;;27.83;4.20;;;10.40;99.90;;;9.87;100.00;100780.97;4137802;28;20026;-56
2024/04/07 02:10:29;;;;;;;30.08;6.05;;;10.50;99.90;;;9.92;100.00;100770.78;4138053;28;20027;-54
2024/04/07 02:12:34;;;;;;;25.70;3.90;;;10.50;99.90;;;9.95;100.00;100781.88;4137691;28;20109;-55
2024/04/07 02:14:34;;;;;;;;;;;10.50;99.90;;;9.92;100.00;100790.06;4138354;28;20474;-53
2024/04/07 02:16:35;;;;;;;27.77;3.78;;;10.50;99.90;;;9.93;100.00;100783.84;4137721;28;19910;-54
2024/04/07 02:18:36;;;;;;;23.42;3.88;;;10.60;99.90;;;10.06;100.00;100782.63;4137789;28;20453;-54
2024/04/07 02:20:37;;;;;;;32.35;4.70;;;10.60;99.90;;;10.03;100.00;100791.66;4146599;28;20036;-55
2024/04/07 02:22:38;;;;;;;24.25;4.43;;;10.60;99.90;;;10.02;100.00;100785.56;4152444;28;20025;-53
2024/04/07 02:24:39;;;;;;;21.58;3.47;;;10.60;99.90;;;9.95;100.00;100791.56;4139786;28;20033;-52
2024/04/07 02:26:39;;;;;;;27.33;4.65;;;10.60;99.90;;;9.94;100.00;100793.41;4137593;28;20022;-56
2024/04/07 02:28:40;;;;;;;27.98;5.10;;;10.50;99.90;;;9.91;100.00;100792.88;4137829;28;20033;-56
2024/04/07 02:30:42;;;;;;;23.30;4.32;;;10.50;99.90;;;9.92;100.00;100790.06;4136670;28;20031;-56
2024/04/07 02:32:43;;;;;;;21.67;3.90;;;10.50;99.90;;;9.85;100.00;100791.69;4137468;28;20053;-52
2024/04/07 02:34:46;;;;;;;23.17;3.55;;;10.50;99.90;;;9.80;100.00;100788.63;4137633;28;20034;-56
2024/04/07 02:36:46;;;;;;;23.95;3.95;;;10.40;99.90;;;9.77;100.00;100791.56;4137415;28;20101;-54
2024/04/07 02:38:47;;;;;;;28.40;4.13;;;10.40;99.90;;;9.79;100.00;100784.38;4137281;28;20035;-54
2024/04/07 02:40:48;;;;;;;26.65;4.03;;;10.40;99.90;;;9.83;100.00;100788.34;4137491;28;20023;-56
2024/04/07 02:42:52;;;;;;;24.92;4.63;;;10.40;99.90;;;9.82;100.00;100789.34;4137299;28;20026;-54
2024/04/07 02:49:31;;;;;;;25.27;4.65;;;10.40;99.90;;;9.75;100.00;100790.91;4137248;28;20041;-54
2024/04/07 02:51:32;;;;;;;33.97;4.40;;;10.40;99.90;;;9.71;100.00;100794.81;4137285;28;20472;-53
2024/04/07 02:53:33;;;;;;;23.13;3.92;;;10.40;99.90;;;9.66;100.00;100791.78;4137284;28;20026;-54
2024/04/07 02:55:34;;;;;;;16.25;3.33;;;10.30;99.90;;;9.65;100.00;100797.19;4150112;28;20048;-53
2024/04/07 02:57:34;;;;;;;29.65;4.53;;;10.30;99.90;;;9.62;100.00;100798.31;4151540;28;20045;-55
2024/04/07 02:59:35;;;;;;;24.50;3.15;;;10.30;99.90;;;9.62;100.00;100795.69;4136929;28;20035;-53
2024/04/07 03:01:37;;;;;;;21.33;4.63;;;10.30;99.90;;;9.57;100.00;100795.31;4137324;28;20027;-54
2024/04/07 03:03:38;;;;;;;17.02;3.72;;;10.20;99.90;;;9.52;100.00;100794.94;4136947;28;20026;-56
2024/04/07 03:05:38;;;;;;;18.60;2.88;;;10.20;99.90;;;9.46;100.00;100813.97;4137129;28;20057;-53
2024/04/07 03:07:39;;;;;;;21.15;4.18;;;10.10;99.90;;;9.43;100.00;100809.00;4136878;28;20493;-54
2024/04/07 03:09:40;;;;;;;22.77;3.55;;;10.00;99.90;;;9.38;100.00;100809.41;4137079;28;20062;-51
2024/04/07 03:11:41;;;;;;;23.23;4.53;;;10.00;99.90;;;9.38;100.00;100819.13;4136671;28;20080;-55
2024/04/07 03:13:42;;;;;;;35.53;5.72;;;10.00;99.90;;;9.40;100.00;100817.19;4137046;28;20088;-51
2024/04/07 03:15:42;;;;;;;21.75;4.35;;;10.00;99.90;;;9.45;100.00;100820.19;4136925;28;20022;-53
2024/04/07 03:17:43;;;;;;;21.58;4.03;;;10.10;99.90;;;9.51;100.00;100824.88;4136947;28;20030;-56
2024/04/07 03:19:44;;;;;;;30.90;3.75;;;10.10;99.90;;;9.54;100.00;100819.31;4138319;28;20022;-55
2024/04/07 03:21:45;;;;;;;25.27;4.05;;;10.20;99.90;;;9.51;100.00;100814.34;4148054;28;20034;-55
2024/04/07 03:23:48;;;;;;;30.27;5.43;;;10.20;99.90;;;9.55;100.00;100810.44;4136766;28;20014;-52
2024/04/07 03:25:48;;;;;;;33.10;4.80;;;10.20;99.90;;;9.55;100.00;100815.72;4136897;28;20077;-55
2024/04/07 03:27:49;;;;;;;29.25;4.40;;;10.20;99.90;;;9.60;100.00;100807.34;4151385;28;20040;-55
2024/04/07 03:29:51;;;;;;;26.45;4.82;;;10.20;99.90;;;9.61;100.00;100811.66;4153164;28;20036;-54
2024/04/07 03:31:51;;;;;;;26.63;3.97;;;10.20;99.90;;;9.59;100.00;100816.25;4152871;28;20022;-53
2024/04/07 03:33:52;;;;;;;25.80;3.90;;;10.20;99.90;;;9.62;100.00;100823.84;4152889;28;20036;-54
2024/04/07 03:36:03;;;;;;;25.50;4.43;;;10.20;99.90;;;9.59;100.00;100826.78;4152771;28;20029;-54
2024/04/07 03:38:04;;;;;;;22.35;3.70;;;10.20;99.90;;;9.63;100.00;100831.59;4151940;28;20030;-53
2024/04/07 03:40:05;;;;;;;36.08;5.35;;;10.20;99.90;;;9.74;100.00;100825.28;4136543;28;20402;-53
2024/04/07 03:42:06;;;;;;;31.17;4.68;;;10.30;99.90;;;9.70;100.00;100824.78;4136028;28;20023;-54
2024/04/07 03:44:08;;;;;;;29.88;5.07;;;10.30;99.90;;;9.70;100.00;100824.78;4136426;28;20031;-54
2024/04/07 03:46:10;;;;;;;29.95;4.75;;;10.30;99.90;;;9.71;100.00;100826.41;4136655;28;20045;-56
2024/04/07 03:48:12;;;;;;;33.20;5.05;;;10.30;99.90;;;9.80;100.00;100822.88;4122526;28;20098;-51
2024/04/07 03:50:13;;;;;;;24.92;4.57;;;10.40;99.90;;;9.83;100.00;100827.84;4120446;28;20035;-55
2024/04/07 03:52:14;;;;;;;23.50;4.10;;;10.40;99.90;;;9.85;100.00;100827.72;4120207;28;20486;-54
2024/04/07 03:54:15;;;;;;;26.45;4.75;;;10.40;99.90;;;9.82;100.00;100828.84;4120969;28;20026;-56
2024/04/07 03:56:15;;;;;;;23.27;3.60;;;10.40;99.90;;;9.90;100.00;100836.00;4120001;28;20026;-53
2024/04/07 03:58:16;;;;;;;27.42;3.22;;;10.50;99.90;;;9.91;100.00;100838.50;4131214;28;20023;-55
2024/04/07 04:00:17;;;;;;;31.35;5.03;;;10.50;99.90;;;9.99;100.00;100840.38;4121210;28;20031;-53
2024/04/07 04:02:25;;;;;;;28.67;4.90;;;10.60;99.90;;;9.97;100.00;100837.88;4120037;28;20023;-53
2024/04/07 04:04:26;;;;;;;30.92;4.25;;;10.60;99.90;;;9.93;100.00;100847.06;4120024;28;20038;-50
2024/04/07 04:06:28;;;;;;;24.63;3.13;;;10.60;99.90;;;9.90;100.00;100847.38;4120113;28;20081;-55
2024/04/07 04:08:29;;;;;;;35.65;5.03;;;10.50;99.90;;;9.90;100.00;100844.75;4130466;28;20033;-54
2024/04/07 04:10:30;;;;;;;26.80;4.05;;;10.50;99.90;;;9.90;100.00;100846.53;4120191;28;20034;-52
2024/04/07 04:12:30;;;;;;;31.95;4.65;;;10.50;99.90;;;9.87;100.00;100836.31;4119886;28;20411;-55
2024/04/07 04:14:31;;;;;;;31.02;4.45;;;10.50;99.90;;;9.88;100.00;100849.34;4120067;28;20562;-54
2024/04/07 04:16:32;;;;;;;24.48;3.72;;;10.50;99.90;;;9.82;100.00;100847.31;4119931;28;20500;-55
2024/04/07 04:18:33;;;;;;;37.17;4.72;;;10.50;99.90;;;9.80;100.00;100840.50;4128309;28;20031;-55
2024/04/07 04:20:41;;;;;;;18.40;3.00;;;10.50;99.90;;;9.80;100.00;100840.50;4120066;28;20549;-54
2024/04/07 04:22:45;;;;;;;25.23;4.78;;;10.40;99.90;;;9.79;100.00;100844.97;4119981;28;20026;-53
2024/04/07 04:24:46;;;;;;;27.90;4.70;;;10.40;99.90;;;9.82;100.00;100849.09;4119910;28;20034;-56
2024/04/07 04:26:46;;;;;;;26.55;2.97;;;10.40;99.90;;;9.84;100.00;100842.69;4119922;28;20022;-55
2024/04/07 04:28:47;;;;;;;20.38;3.15;;;10.40;99.90;;;9.83;100.00;100841.03;4125653;28;20034;-54
2024/04/07 04:30:58;;;;;;;24.95;3.67;;;10.50;99.90;;;9.83;100.00;100845.47;4119996;28;20027;-55
2024/04/07 04:32:59;;;;;;;33.15;4.20;;;10.40;99.90;;;9.79;100.00;100844.97;4120028;28;20030;-55
2024/04/07 04:35:00;;;;;;;34.03;4.00;;;10.40;99.90;;;9.81;100.00;100843.00;4119957;28;20104;-56
2024/04/07 04:37:01;;;;;;;23.08;3.20;;;10.40;99.90;;;9.76;100.00;100853.16;4120210;28;20030;-52
2024/04/07 04:39:02;;;;;;;24.40;4.05;;;10.40;99.90;;;9.78;100.00;100858.25;4122581;28;20043;-53
2024/04/07 04:41:03;;;;;;;26.90;4.80;;;10.40;99.90;;;9.75;100.00;100853.28;4120004;28;20110;-55
2024/04/07 04:43:04;;;;;;;21.92;4.63;;;10.40;99.90;;;9.78;100.00;100853.00;4119936;28;20371;-56
2024/04/07 04:45:06;;;;;;;19.67;4.20;;;10.40;99.90;;;9.70;100.00;100859.03;4119868;28;20069;-52
2024/04/07 04:47:08;;;;;;;19.80;2.70;;;10.40;99.90;;;9.65;100.00;100852.50;4136427;28;20082;-54
2024/04/07 04:49:10;;;;;;;28.13;3.38;;;10.30;99.90;;;9.59;100.00;100859.19;4135960;28;20030;-55
2024/04/07 04:51:11;;;;;;;24.80;4.90;;;10.30;99.90;;;9.58;100.00;100860.19;4135924;28;20030;-54
2024/04/07 04:53:12;;;;;;;19.65;5.03;;;10.20;99.90;;;9.59;100.00;100861.03;4136018;28;20030;-54
2024/04/07 04:55:13;;;;;;;29.23;4.40;;;10.20;99.90;;;9.61;100.00;100856.44;4148388;28;20041;-55
2024/04/07 04:57:14;;;;;;;20.38;3.55;;;10.20;99.90;;;9.63;100.00;100855.31;4155789;28;20027;-54
2024/04/07 04:59:14;;;;;;;26.05;3.40;;;10.30;99.90;;;9.66;100.00;100859.44;4159349;28;20030;-56
2024/04/07 05:01:16;;;;;;;21.33;3.30;;;10.30;99.90;;;9.70;100.00;100861.66;4138736;28;20023;-53
2024/04/07 05:03:17;;;;;;;8.75;2.83;;;10.30;99.90;;;9.71;100.00;100859.81;4139046;28;20109;-53
2024/04/07 05:05:18;;;;;;;20.20;4.53;;;10.30;99.90;;;9.70;100.00;100861.66;4138759;28;20030;-51
2024/04/07 05:07:19;;;;;;;17.23;3.45;;;10.30;99.90;;;9.68;100.00;100862.75;4143617;28;20034;-54
2024/04/07 05:09:19;;;;;;;14.30;2.35;;;10.30;99.90;;;9.64;100.00;100859.59;4154130;28;20034;-54
2024/04/07 05:11:20;;;;;;;21.65;3.05;;;10.30;99.90;;;9.64;100.00;100856.97;4138605;28;20034;-56
2024/04/07 05:13:21;;;;;;;16.83;2.53;;;10.30;99.90;;;9.63;100.00;100854.47;4138674;28;20019;-55
2024/04/07 05:15:22;;;;;;;25.45;3.42;;;10.30;99.90;;;9.64;100.00;100856.97;4138830;28;20045;-52
2024/04/07 05:17:23;;;;;;;19.23;3.97;;;10.20;99.90;;;9.63;100.00;100857.94;4144185;28;20029;-54
2024/04/07 05:19:25;;;;;;;24.35;4.40;;;10.20;99.90;;;9.65;100.00;100861.25;4148078;28;20409;-54
2024/04/07 05:21:26;;;;;;;17.90;3.30;;;10.30;99.90;;;9.60;100.00;100849.50;4151815;28;20539;-56
2024/04/07 05:23:27;;;;;;;23.35;3.28;;;10.20;99.90;;;9.60;100.00;100852.13;4138676;28;20038;-54
2024/04/07 05:25:28;;;;;;;16.60;3.10;;;10.20;99.90;;;9.59;100.00;100867.09;4138725;28;20026;-54
2024/04/07 05:27:28;;;;;;;26.42;5.13;;;10.20;99.90;;;9.53;100.00;100864.25;4145128;28;20022;-55
2024/04/07 05:29:30;;;;;;;23.30;3.85;;;10.20;99.90;;;9.56;100.00;100863.94;4141168;28;20041;-54
2024/04/07 05:31:31;;;;;;;29.17;3.92;;;10.20;99.90;;;9.52;100.00;100866.03;4150359;28;20041;-52
2024/04/07 05:33:32;;;;;;;21.17;3.20;;;10.20;99.90;;;9.48;100.00;100859.41;4138680;28;20121;-52
2024/04/07 05:35:33;;;;;;;21.23;3.65;;;10.20;99.90;;;9.50;100.00;100865.34;4138598;28;20033;-52
2024/04/07 05:37:34;;;;;;;18.20;3.97;;;10.10;99.90;;;9.50;100.00;100864.53;4142751;28;20029;-55
2024/04/07 05:39:35;;;;;;;22.13;3.22;;;10.10;99.90;;;9.53;100.00;100857.16;4138334;28;20060;-52
2024/04/07 05:41:36;;;;;;;19.77;2.53;;;10.10;99.90;;;9.59;100.00;100864.47;4138218;28;20030;-54
2024/04/07 05:43:38;;;;;;;23.33;3.25;;;10.20;99.90;;;9.57;100.00;100865.59;4138471;28;20015;-55
2024/04/07 05:45:39;;;;;;;16.98;3.38;;;10.20;99.90;;;9.61;100.00;100861.69;4138118;28;20077;-52
2024/04/07 05:47:39;;;;;;;31.73;4.82;;;10.20;99.90;;;9.68;100.00;100875.91;4147219;28;20037;-54
2024/04/07 05:49:41;;;;;;;29.90;3.40;;;10.20;99.90;;;9.63;100.00;100872.91;4155123;28;20081;-57
2024/04/07 05:51:42;;;;;;;18.02;3.38;;;10.20;99.90;;;9.61;100.00;100866.97;4138372;28;20030;-54
2024/04/07 05:53:43;;;;;;;24.55;3.65;;;10.20;99.90;;;9.57;100.00;100866.44;4138256;28;20057;-52
2024/04/07 05:55:44;;;;;;;12.27;2.42;;;10.20;99.90;;;9.57;100.00;100866.44;4152276;28;20085;-51
2024/04/07 05:57:44;;;;;;;18.35;2.70;;;10.20;99.90;;;9.54;100.00;100869.34;4159267;28;20029;-56
2024/04/07 05:59:48;;;;;;;21.17;3.70;;;10.10;99.90;;;9.54;100.00;100874.63;4148403;28;20485;-55
2024/04/07 06:01:49;;;;;;;9.73;1.90;;;10.10;99.90;;;9.51;100.00;100869.66;4138219;28;20105;-55
2024/04/07 06:03:50;;;;;;;21.13;5.55;;;10.20;99.90;;;9.50;100.00;100877.69;4151901;28;20037;-56
2024/04/07 06:05:51;;;;;;;10.60;2.53;;;10.10;99.90;;;9.47;100.00;100876.16;4154235;28;20046;-55
2024/04/07 06:07:51;;;;;;;22.90;3.42;;;10.10;99.90;;;9.45;100.00;100875.50;4160182;28;20078;-55
2024/04/07 06:09:53;;;;;;;24.10;4.28;;;10.10;99.90;;;9.45;100.00;100892.13;4141442;28;20038;-54
2024/04/07 06:11:53;;;;;;;20.42;3.88;;;10.10;99.90;;;9.45;100.00;100893.91;4137951;28;20561;-53
2024/04/07 06:13:54;;;;;;;16.92;4.43;;;10.10;99.90;;;9.47;100.00;100897.22;4137929;28;20030;-52
2024/04/07 06:15:55;;;;;;;20.85;3.83;;;10.10;99.90;;;9.50;100.00;100896.13;4137820;28;20041;-54
2024/04/07 06:17:56;;;;;;;19.58;3.25;;;10.10;99.90;;;9.50;100.00;100896.94;4149514;28;20034;-56
2024/04/07 06:19:57;;;;;;;24.73;3.17;;;10.10;99.90;;;9.50;100.00;100896.94;4141152;28;20481;-55
2024/04/07 06:21:57;;;;;;;17.17;3.08;;;10.10;99.90;;;9.48;100.00;100893.63;4147291;28;20022;-55
2024/04/07 06:23:58;;;;;;;12.95;2.65;;;10.10;99.90;;;9.49;100.00;100900.56;4137683;28;20401;-54
2024/04/07 06:25:59;;;;;;;19.38;2.92;;;10.10;99.90;;;9.50;100.00;100904.03;4137572;28;20512;-54
2024/04/07 06:28:00;;;;;;;14.88;3.38;;;10.10;99.90;;;9.51;100.00;100900.41;4144547;28;20022;-55
2024/04/07 06:30:03;;;;;;;17.30;3.33;;;10.10;99.90;;;9.52;100.00;100900.28;4137833;28;20041;-52
2024/04/07 06:32:05;;;;;;;18.40;3.33;;;10.10;99.90;;;9.54;100.00;100895.69;4137766;28;20018;-54
2024/04/07 06:34:06;;;;;;;23.25;4.35;;;10.10;99.90;;;9.60;100.00;100903.00;4137511;28;20238;-55
2024/04/07 06:36:07;;;;;;;17.30;2.88;;;10.20;99.90;;;9.61;100.00;100904.66;4137711;28;20034;-56
2024/04/07 06:38:07;;;;;;;25.17;4.32;;;10.20;99.90;;;9.64;100.00;100914.09;4139930;28;20027;-55
2024/04/07 06:40:09;;;;;;;21.80;3.60;;;10.20;99.90;;;9.67;100.00;100924.31;4137435;28;20478;-56
2024/04/07 06:42:09;;;;;;;19.13;3.97;;;10.20;99.90;;;9.71;100.00;100920.41;4137362;28;20080;-56
2024/04/07 06:44:10;;;;;;;22.10;4.35;;;10.30;99.90;;;9.78;100.00;100927.59;4137441;28;20510;-52
2024/04/07 06:46:11;;;;;;;22.02;3.95;;;10.30;99.90;;;9.81;100.00;100921.19;4137416;28;20038;-53
2024/04/07 06:48:12;;;;;;;20.17;2.55;;;10.30;99.90;;;9.86;100.00;100917.13;4153329;28;20037;-54
2024/04/07 06:50:13;;;;;;;19.85;4.05;;;10.40;99.90;;;9.96;100.00;100925.84;4145032;28;20026;-53
2024/04/07 06:52:15;;;;;;;20.88;4.20;;;10.50;99.90;;;10.02;100.00;100925.25;4137395;28;20064;-55
2024/04/07 06:54:16;;;;;;;26.42;5.07;;;10.50;99.90;;;10.09;100.00;100929.94;4139836;28;20101;-53
2024/04/07 06:56:17;;;;;;;19.10;4.07;;;10.60;99.90;;;10.11;100.00;100930.59;4153132;28;20482;-54
2024/04/07 06:58:18;;;;;;;22.38;4.50;;;10.70;99.90;;;10.18;100.00;100929.06;4164503;28;20037;-55
2024/04/07 07:00:19;;;;;;;23.25;2.45;;;10.70;99.90;;;10.23;100.00;100932.91;4138670;28;20487;-54
2024/04/07 07:02:20;;;;;;;18.98;3.17;;;10.80;99.90;;;10.28;100.00;100928.00;4137156;28;20073;-55
2024/04/07 07:04:20;;;;;;;17.55;2.83;;;10.90;99.90;;;10.37;100.00;100940.31;4137091;28;20034;-54
2024/04/07 07:06:21;;;;;;;20.17;4.68;;;10.90;99.90;;;10.45;100.00;100947.47;4137062;28;20030;-52
2024/04/07 07:08:22;;;;;;;17.48;4.15;;;11.00;99.90;;;10.50;100.00;100940.78;4151196;28;20083;-53
2024/04/07 07:10:23;;;;;;;25.50;3.65;;;11.10;99.90;;;10.58;100.00;100940.00;4136998;28;20022;-56
2024/04/07 07:12:24;;;;;;;17.23;2.70;;;11.10;99.90;;;10.66;100.00;100942.72;4136801;28;20109;-57
2024/04/07 07:14:25;;;;;;;22.02;2.55;;;11.20;99.90;;;10.74;100.00;100945.44;4136875;28;20498;-53
2024/04/07 07:16:26;;;;;;;25.15;3.20;;;11.20;99.90;;;10.77;100.00;100950.41;4136487;28;20053;-54
2024/04/07 07:18:27;;;;;;;24.90;4.82;;;11.30;99.90;;;10.84;100.00;100948.00;4146007;28;20030;-56
2024/04/07 07:20:28;;;;;;;21.95;4.00;;;11.40;99.90;;;10.90;100.00;100953.47;4144473;28;20030;-54
2024/04/07 07:22:29;;;;;;;13.25;2.65;;;11.40;99.90;;;10.99;100.00;100957.03;4142164;28;20018;-56
2024/04/07 07:24:29;;;;;;;20.33;3.20;;;11.50;99.90;;;11.08;100.00;100958.72;4149984;28;20028;-52
2024/04/07 07:26:30;;;;;;;15.50;3.08;;;11.60;99.90;;;11.18;100.00;100961.25;4136684;28;20022;-54
2024/04/07 07:28:31;;;;;;;18.67;3.63;;;11.60;99.90;;;11.23;100.00;100965.09;4142096;28;20034;-55
2024/04/07 07:30:33;;;;;;;16.05;3.10;;;11.70;99.90;;;11.33;100.00;100960.56;4136551;28;20081;-54
2024/04/07 07:32:34;;;;;;;15.10;2.25;;;11.80;99.90;;;11.38;100.00;100957.47;4136695;28;20042;-55
2024/04/07 07:34:35;;;;;;;16.38;3.03;;;11.80;99.90;;;11.47;100.00;100956.50;4136759;28;20453;-52
2024/04/07 07:36:35;;;;;;;24.27;3.30;;;11.90;99.90;;;11.49;100.00;100950.09;4136678;28;20031;-54
2024/04/07 07:38:36;;;;;;;17.25;3.42;;;12.00;99.90;;;11.53;100.00;100953.22;4137274;28;20026;-55
2024/04/07 07:40:37;;;;;;;15.00;2.63;;;12.10;99.90;;;11.59;100.00;100956.06;4136458;28;20552;-55
2024/04/07 07:42:38;;;;;;;12.18;2.50;;;12.10;99.90;;;11.64;100.00;100955.63;4136486;28;20026;-55
2024/04/07 07:44:39;;;;;;;13.40;2.90;;;12.20;99.90;;;11.69;100.00;100955.97;4136552;28;20030;-53
2024/04/07 07:46:39;;;;;;;13.30;2.92;;;12.20;99.90;;;11.77;100.00;100953.38;4136360;28;20438;-54
2024/04/07 07:48:40;;;;;;;20.30;2.35;;;12.30;99.90;;;11.90;100.00;100964.34;4158247;28;20496;-55
2024/04/07 07:50:43;;;;;;;13.02;2.63;;;12.40;99.90;;;12.01;100.00;100956.13;4137130;28;20504;-53
2024/04/07 07:52:46;;;;;;;12.23;2.92;;;12.50;99.90;;;12.07;100.00;100966.06;4136376;28;20038;-56
2024/04/07 07:54:47;;;;;;;15.95;2.58;;;12.60;99.90;;;12.17;100.00;100971.22;4142855;28;20026;-56
2024/04/07 07:56:48;;;;;;;19.05;3.13;;;12.60;99.90;;;12.30;100.00;100970.78;4152398;28;20417;-56
2024/04/07 07:58:49;;;;;;;26.98;4.55;;;12.70;99.90;;;12.48;100.00;100974.97;4158218;28;20474;-54
2024/04/07 08:00:50;;;;;;;13.98;2.60;;;12.90;99.90;;;12.55;100.00;100972.47;4136297;28;20034;-55
2024/04/07 08:02:52;;;;;;;12.63;2.35;;;13.00;99.90;;;12.66;100.00;100977.47;4136261;28;20031;-55
2024/04/07 08:04:53;;;;;;;12.73;2.25;;;13.10;99.90;;;12.70;100.00;100984.06;4136351;28;20058;-53
2024/04/07 08:06:54;;;;;;;10.20;2.30;;;13.10;99.90;;;12.81;100.00;100975.00;4138884;28;20065;-54
2024/04/07 08:08:55;;;;;;;10.93;2.53;;;13.20;99.90;;;12.92;100.00;100979.94;4152424;28;20054;-54
2024/04/07 08:10:57;;;;;;;12.80;2.88;;;13.40;99.90;;;12.94;100.00;100976.16;4152355;28;20032;-56
2024/04/07 08:12:58;;;;;;;13.77;2.42;;;13.40;99.90;;;13.04;100.00;100979.47;4160183;28;20025;-56
2024/04/07 08:14:59;;;;;;;14.27;3.20;;;13.50;99.90;;;13.02;100.00;100978.78;4136417;28;20058;-54
2024/04/07 08:17:00;;;;;;;16.13;2.47;;;13.50;99.90;;;13.02;100.00;100977.97;4136244;28;20030;-55
2024/04/07 08:19:01;;;;;;;12.05;2.28;;;13.50;99.90;;;12.86;100.00;100977.97;4136001;28;20085;-52
2024/04/07 08:21:02;;;;;;;17.13;2.63;;;13.50;99.90;;;12.84;100.00;100987.91;4148193;28;20033;-56